createdAt,value
2023-01-22T00:15:43.975Z,67.10
2023-01-22T00:18:10.292Z,67.30
2023-01-22T00:21:10.540Z,67.10
2023-01-22T00:26:25.256Z,67.10
2023-01-22T00:29:11.325Z,67.20
2023-01-22T00:46:34.537Z,67.40
2023-01-22T00:49:23.014Z,67.20
2023-01-22T00:55:38.497Z,67.20
2023-01-22T01:30:22.549Z,67.30
2023-01-22T01:32:49.738Z,67.80
2023-01-22T01:35:16.615Z,67.50
2023-01-22T01:57:33.030Z,67.30
2023-01-22T02:03:29.853Z,67.60
2023-01-22T02:05:57.283Z,67.70
2023-01-22T02:08:24.087Z,67.40
2023-01-22T02:10:53.123Z,67.50
2023-01-22T02:13:25.537Z,68.20
2023-01-22T02:15:53.193Z,67.50
2023-01-22T02:18:20.429Z,67.80
2023-01-22T02:20:56.663Z,67.60
2023-01-22T02:23:24.662Z,67.50
2023-01-22T02:25:52.672Z,67.50
2023-01-22T02:37:14.617Z,67.50
2023-01-22T02:58:29.769Z,67.40
2023-01-22T03:02:10.579Z,67.30
2023-01-22T03:09:02.768Z,67.50
2023-01-22T03:39:43.097Z,67.60
2023-01-22T03:42:09.903Z,67.70
2023-01-22T03:44:36.669Z,68.10
2023-01-22T03:47:03.547Z,68.40
2023-01-22T03:49:30.381Z,67.90
2023-01-22T03:51:57.363Z,68.00
2023-01-22T03:54:24.216Z,68.10
2023-01-22T03:56:50.971Z,67.60
2023-01-22T04:06:45.479Z,67.60
2023-01-22T04:10:03.787Z,67.70
2023-01-22T04:12:30.532Z,67.70
2023-01-22T04:15:47.622Z,67.70
2023-01-22T04:25:41.835Z,67.70
2023-01-22T04:29:08.014Z,67.70
2023-01-22T04:46:14.647Z,67.70
2023-01-22T04:48:41.477Z,68.30
2023-01-22T04:51:08.838Z,67.70
2023-01-22T04:53:36.224Z,67.70
2023-01-22T04:56:03.698Z,67.80
2023-01-22T04:58:30.995Z,67.70
2023-01-22T05:00:58.473Z,67.60
2023-01-22T05:03:25.984Z,67.60
2023-01-22T05:05:53.664Z,68.00
2023-01-22T05:08:21.042Z,68.00
2023-01-22T05:10:48.451Z,68.00
2023-01-22T05:13:15.836Z,67.70
2023-01-22T05:15:43.341Z,67.80
2023-01-22T05:18:11.034Z,68.10
2023-01-22T05:20:39.041Z,67.90
2023-01-22T05:23:06.434Z,67.80
2023-01-22T05:29:57.439Z,68.10
2023-01-22T05:53:42.847Z,67.80
2023-01-22T05:56:09.931Z,68.20
2023-01-22T05:58:37.035Z,67.80
2023-01-22T06:01:04.073Z,67.90
2023-01-22T06:29:25.069Z,67.90
2023-01-22T06:32:04.251Z,67.90
2023-01-22T06:35:02.168Z,68.00
2023-01-22T06:38:36.611Z,68.00
2023-01-22T06:44:51.613Z,68.00
2023-01-22T06:51:44.777Z,68.10
2023-01-22T07:28:19.050Z,68.00
2023-01-22T07:30:48.673Z,68.00
2023-01-22T07:33:16.071Z,68.40
2023-01-22T07:35:43.279Z,68.30
2023-01-22T07:38:10.132Z,68.20
2023-01-22T07:40:46.012Z,68.00
2023-01-22T08:02:06.243Z,68.30
2023-01-22T08:08:38.441Z,68.40
2023-01-22T08:29:01.768Z,68.20
2023-01-22T08:52:13.307Z,68.30
2023-01-22T09:45:16.235Z,68.40
2023-01-22T10:33:43.367Z,68.30
2023-01-22T10:37:17.077Z,68.30
2023-01-22T10:39:55.166Z,68.10
2023-01-22T10:44:04.883Z,68.50
2023-01-22T10:46:43.161Z,68.50
2023-01-22T10:49:36.383Z,68.30
2023-01-22T10:52:22.897Z,68.30
2023-01-22T10:54:56.902Z,68.30
2023-01-22T10:57:34.680Z,68.20
2023-01-22T11:00:22.016Z,68.20
2023-01-22T11:02:51.457Z,68.10
2023-01-22T11:05:34.110Z,68.40
2023-01-22T11:08:05.707Z,68.20
2023-01-22T11:10:53.848Z,68.50
2023-01-22T11:14:03.159Z,68.30
2023-01-22T11:16:35.242Z,68.20
2023-01-22T11:19:07.057Z,68.40
2023-01-22T11:21:46.164Z,68.20
2023-01-22T11:24:18.767Z,68.10
2023-01-22T11:27:14.110Z,68.20
2023-01-22T11:29:50.411Z,68.20
2023-01-22T11:32:39.147Z,68.40
2023-01-22T11:35:23.463Z,68.20
2023-01-22T11:38:02.760Z,68.20
2023-01-22T11:40:32.262Z,68.20
2023-01-22T11:43:26.185Z,68.20
2023-01-22T11:46:14.808Z,68.10
2023-01-22T11:49:06.402Z,68.10
2023-01-22T11:51:41.307Z,68.10
2023-01-22T11:54:12.142Z,68.10
2023-01-22T11:57:20.692Z,68.10
2023-01-22T11:59:50.758Z,68.10
2023-01-22T12:02:30.293Z,68.10
2023-01-22T12:05:13.611Z,68.10
2023-01-22T12:08:00.271Z,68.20
2023-01-22T12:10:33.340Z,68.20
2023-01-22T12:13:22.200Z,68.20
2023-01-22T12:16:12.835Z,68.10
2023-01-22T12:19:02.101Z,68.10
2023-01-22T12:21:44.731Z,68.10
2023-01-22T12:24:22.560Z,68.10
2023-01-22T12:27:00.595Z,68.10
2023-01-22T12:29:29.103Z,68.10
2023-01-22T12:32:09.019Z,68.00
2023-01-22T12:34:45.365Z,68.00
2023-01-22T12:37:17.172Z,68.00
2023-01-22T12:40:18.892Z,68.20
2023-01-22T12:43:05.561Z,68.10
2023-01-22T12:45:32.817Z,68.10
2023-01-22T12:48:15.124Z,68.30
2023-01-22T12:50:56.597Z,68.30
2023-01-22T12:53:34.516Z,68.10
2023-01-22T12:56:10.426Z,68.10
2023-01-22T12:58:40.545Z,68.10
2023-01-22T13:01:11.585Z,68.10
2023-01-22T13:03:41.060Z,68.10
2023-01-22T13:06:30.447Z,68.10
2023-01-22T13:08:58.420Z,68.10
2023-01-22T13:11:34.254Z,68.20
2023-01-22T13:14:15.212Z,68.10
2023-01-22T13:17:01.428Z,68.10
2023-01-22T13:19:42.580Z,68.20
2023-01-22T13:22:15.775Z,68.20
2023-01-22T13:24:57.549Z,68.20
2023-01-22T13:27:31.135Z,68.20
2023-01-22T13:30:21.995Z,68.40
2023-01-22T13:32:49.308Z,68.20
2023-01-22T13:35:19.764Z,68.20
2023-01-22T13:37:51.687Z,68.20
2023-01-22T13:40:24.741Z,68.80
2023-01-22T13:42:53.500Z,68.10
2023-01-22T13:45:31.610Z,68.10
2023-01-22T13:48:04.470Z,68.20
2023-01-22T13:50:32.808Z,68.50
2023-01-22T13:53:03.923Z,68.30
2023-01-22T13:55:31.566Z,68.20
2023-01-22T13:58:01.747Z,68.60
2023-01-22T14:00:34.701Z,68.40
2023-01-22T14:03:03.094Z,68.20
2023-01-22T14:05:35.763Z,68.50
2023-01-22T14:08:09.996Z,68.10
2023-01-22T14:10:38.285Z,68.20
2023-01-22T14:13:11.523Z,68.10
2023-01-22T14:15:40.111Z,68.10
2023-01-22T14:18:09.147Z,68.20
2023-01-22T14:20:41.581Z,68.10
2023-01-22T14:23:09.015Z,68.20
2023-01-22T14:25:45.738Z,68.50
2023-01-22T14:28:14.217Z,68.10
2023-01-22T14:30:41.562Z,68.40
2023-01-22T14:33:19.325Z,68.40
2023-01-22T14:35:46.830Z,68.20
2023-01-22T14:38:14.291Z,68.30
2023-01-22T14:40:42.499Z,68.10
2023-01-22T14:43:09.980Z,68.10
2023-01-22T14:45:39.675Z,68.30
2023-01-22T14:48:07.140Z,68.10
2023-01-22T14:50:34.667Z,68.10
2023-01-22T14:53:01.928Z,68.20
2023-01-22T14:55:29.304Z,68.10
2023-01-22T14:57:58.022Z,68.20
2023-01-22T15:00:28.202Z,68.20
2023-01-22T15:02:56.784Z,68.10
2023-01-22T15:05:24.886Z,68.20
2023-01-22T15:07:52.068Z,68.20
2023-01-22T15:10:19.831Z,68.10
2023-01-22T15:12:49.019Z,68.00
2023-01-22T15:15:25.715Z,68.00
2023-01-22T15:17:54.581Z,68.10
2023-01-22T15:20:22.491Z,68.10
2023-01-22T15:22:50.160Z,68.10
2023-01-22T15:25:18.016Z,68.20
2023-01-22T15:27:45.742Z,68.10
2023-01-22T15:30:13.831Z,68.20
2023-01-22T15:32:41.435Z,68.10
2023-01-22T15:35:09.353Z,68.10
2023-01-22T15:37:37.035Z,68.10
2023-01-22T15:40:05.057Z,68.10
2023-01-22T15:42:32.642Z,68.10
2023-01-22T15:45:00.131Z,68.60
2023-01-22T15:47:27.750Z,68.20
2023-01-22T15:49:55.450Z,68.20
2023-01-22T15:52:25.794Z,68.20
2023-01-22T15:54:54.289Z,68.30
2023-01-22T15:57:21.106Z,68.20
2023-01-22T16:07:09.424Z,68.30
2023-01-22T16:17:10.338Z,68.40
2023-01-22T16:20:14.451Z,68.80
2023-01-22T16:26:13.672Z,68.30
2023-01-22T16:50:46.297Z,68.30
2023-01-22T17:00:13.989Z,68.20
2023-01-22T17:14:50.373Z,68.30
2023-01-22T17:33:07.781Z,68.20
2023-01-22T17:35:36.134Z,68.20
2023-01-22T17:47:26.122Z,68.10
2023-01-22T18:17:57.698Z,68.20
2023-01-22T18:32:18.509Z,68.50
2023-01-22T18:46:14.391Z,68.70
2023-01-22T19:05:08.983Z,68.50
2023-01-22T19:11:03.475Z,68.80
2023-01-22T19:19:01.725Z,68.50
2023-01-22T20:18:07.913Z,68.50
2023-01-22T20:29:09.609Z,68.60
2023-01-22T20:51:15.466Z,68.70
2023-01-22T20:58:17.288Z,68.70
2023-01-22T21:22:43.536Z,69.00
2023-01-22T21:29:39.520Z,68.90
2023-01-22T21:40:19.765Z,68.60
2023-01-22T22:06:35.138Z,68.80
2023-01-22T22:10:06.493Z,68.70
2023-01-22T22:42:01.295Z,68.70
2023-01-22T23:02:22.814Z,68.80
2023-01-22T23:29:42.429Z,68.80
2023-01-22T23:42:51.473Z,68.90
